Time;durP1;ratioP1;P1;durP2;ratioP2;P2;SDS_P1;SDS_P2;PMS_P1;PMS_P2;Temp;Humidity;BMP_temperature;BMP_pressure;BME280_temperature;BME280_humidity;BME280_pressure;Samples;Min_cycle;Max_cycle;Signal;HPM_P1;HPM_P2
2022/06/24 00:00:29;;;;;;;3.88;3.10;;;;;;;;;;4992556;28;20095;-72
2022/06/24 00:02:55;;;;;;;3.80;3.20;;;;;;;;;;5035843;28;20045;-72
2022/06/24 00:05:21;;;;;;;7.38;3.50;;;;;;;;;;5021956;28;20426;-72
2022/06/24 00:07:48;;;;;;;5.50;3.30;;;;;;;;;;5010192;28;20375;-72
2022/06/24 00:10:21;;;;;;;5.68;3.40;;;;;;;;;;5022817;28;20045;-72
2022/06/24 00:12:48;;;;;;;6.40;3.40;;;;;;;;;;5008898;28;20487;-72
2022/06/24 00:15:14;;;;;;;8.05;3.70;;;;;;;;;;5010846;28;20502;-72
2022/06/24 00:17:40;;;;;;;6.65;3.75;;;;;;;;;;5005130;28;20042;-72
2022/06/24 00:20:08;;;;;;;6.40;3.95;;;;;;;;;;5010561;28;20057;-72
2022/06/24 00:22:42;;;;;;;4.53;3.78;;;;;;;;;;4998040;28;20136;-72
2022/06/24 00:25:12;;;;;;;6.68;3.97;;;;;;;;;;5028473;28;20045;-72
2022/06/24 00:27:39;;;;;;;4.68;3.30;;;;;;;;;;5032991;28;20114;-72
2022/06/24 00:30:12;;;;;;;8.00;4.20;;;;;;;;;;5023668;28;20465;-71
2022/06/24 00:32:38;;;;;;;9.43;4.13;;;;;;;;;;5008459;28;20100;-71
2022/06/24 00:35:06;;;;;;;6.72;3.60;;;;;;;;;;5022155;28;20406;-71
2022/06/24 00:37:33;;;;;;;12.13;3.38;;;;;;;;;;5028596;28;20661;-72
2022/06/24 00:40:03;;;;;;;16.58;5.18;;;;;;;;;;4996098;28;20046;-72
2022/06/24 00:42:30;;;;;;;7.05;4.05;;;;;;;;;;5003520;28;20172;-71
2022/06/24 00:45:15;;;;;;;7.05;3.88;;;;;;;;;;5004399;28;20506;-72
2022/06/24 00:47:43;;;;;;;5.68;3.40;;;;;;;;;;4999536;28;20081;-71
2022/06/24 00:50:17;;;;;;;6.65;4.00;;;;;;;;;;5004364;28;20386;-72
2022/06/24 00:52:43;;;;;;;5.50;3.88;;;;;;;;;;4974401;28;20061;-71
2022/06/24 00:55:11;;;;;;;5.10;3.50;;;;;;;;;;5005619;28;20132;-72
2022/06/24 00:57:37;;;;;;;5.38;3.60;;;;;;;;;;5000304;28;20297;-72
2022/06/24 01:00:04;;;;;;;5.70;3.30;;;;;;;;;;4999155;28;20093;-71
2022/06/24 01:02:31;;;;;;;5.15;4.00;;;;;;;;;;4982494;28;20081;-71
2022/06/24 01:05:06;;;;;;;5.55;3.08;;;;;;;;;;4993732;28;20049;-71
2022/06/24 01:07:36;;;;;;;8.40;4.60;;;;;;;;;;4981346;28;20046;-71
2022/06/24 01:10:02;;;;;;;5.82;3.80;;;;;;;;;;5010761;28;20050;-71
2022/06/24 01:12:30;;;;;;;9.88;4.07;;;;;;;;;;4975282;28;20070;-71
2022/06/24 01:14:56;;;;;;;9.50;4.35;;;;;;;;;;5005441;28;20526;-71
2022/06/24 01:17:22;;;;;;;9.43;4.22;;;;;;;;;;4981402;28;20051;-71
2022/06/24 01:19:48;;;;;;;4.10;3.53;;;;;;;;;;4991856;28;20053;-71
2022/06/24 01:22:19;;;;;;;9.15;3.80;;;;;;;;;;4981291;28;20038;-71
2022/06/24 01:24:45;;;;;;;4.90;3.70;;;;;;;;;;5005051;28;20514;-71
2022/06/24 01:27:11;;;;;;;4.15;3.58;;;;;;;;;;5002176;28;20041;-71
2022/06/24 01:29:37;;;;;;;9.73;4.65;;;;;;;;;;4976603;28;20049;-71
2022/06/24 01:32:03;;;;;;;4.57;3.63;;;;;;;;;;4992112;28;20034;-71
2022/06/24 01:34:29;;;;;;;11.45;4.78;;;;;;;;;;4980990;28;20042;-72
2022/06/24 01:36:55;;;;;;;3.97;3.63;;;;;;;;;;5008139;28;20120;-71
2022/06/24 01:39:21;;;;;;;3.85;3.50;;;;;;;;;;4984716;28;20527;-72
2022/06/24 01:41:48;;;;;;;7.85;4.25;;;;;;;;;;4993144;28;20435;-72
2022/06/24 01:44:14;;;;;;;9.02;4.10;;;;;;;;;;4985194;28;20386;-72
2022/06/24 01:46:40;;;;;;;5.70;3.60;;;;;;;;;;4980197;28;20042;-71
2022/06/24 01:49:06;;;;;;;6.00;3.70;;;;;;;;;;4999943;28;20061;-71
2022/06/24 01:51:33;;;;;;;4.35;3.60;;;;;;;;;;5006093;28;20089;-71
2022/06/24 01:53:59;;;;;;;4.72;3.55;;;;;;;;;;5004931;28;20491;-70
2022/06/24 01:56:25;;;;;;;6.70;3.60;;;;;;;;;;4994165;28;20080;-72
2022/06/24 01:58:51;;;;;;;9.05;4.10;;;;;;;;;;5030428;28;20072;-71
2022/06/24 02:01:17;;;;;;;6.93;4.57;;;;;;;;;;5018495;28;20490;-71
2022/06/24 02:03:43;;;;;;;8.35;4.47;;;;;;;;;;5030184;28;20060;-71
2022/06/24 02:06:10;;;;;;;6.88;4.25;;;;;;;;;;4999872;28;20077;-72
2022/06/24 02:08:37;;;;;;;8.60;4.40;;;;;;;;;;5016775;28;20069;-72
2022/06/24 02:13:48;;;;;;;11.82;4.78;;;;;;;;;;5019542;28;20128;-71
2022/06/24 02:16:15;;;;;;;8.77;4.60;;;;;;;;;;4999411;28;20041;-72
2022/06/24 02:18:41;;;;;;;7.60;4.80;;;;;;;;;;4989275;28;20052;-71
2022/06/24 02:21:07;;;;;;;10.05;4.65;;;;;;;;;;4999294;28;20077;-72
2022/06/24 02:23:33;;;;;;;7.63;4.28;;;;;;;;;;4998183;28;20084;-71
2022/06/24 02:25:59;;;;;;;6.57;4.28;;;;;;;;;;5030276;28;20045;-71
2022/06/24 02:28:25;;;;;;;8.45;4.70;;;;;;;;;;5005488;28;20125;-71
2022/06/24 02:30:53;;;;;;;4.55;4.03;;;;;;;;;;5017137;28;20141;-71
2022/06/24 02:33:19;;;;;;;4.95;3.85;;;;;;;;;;5006039;28;20041;-71
2022/06/24 02:35:45;;;;;;;9.38;4.32;;;;;;;;;;4999595;28;20056;-72
2022/06/24 02:38:11;;;;;;;12.55;5.40;;;;;;;;;;4998766;28;20037;-72
2022/06/24 02:40:47;;;;;;;6.60;4.20;;;;;;;;;;5023309;28;20505;-72
2022/06/24 02:43:23;;;;;;;6.50;3.95;;;;;;;;;;5010377;28;20099;-72
2022/06/24 02:45:54;;;;;;;8.07;4.78;;;;;;;;;;4998685;28;20049;-72
2022/06/24 02:48:21;;;;;;;10.15;4.80;;;;;;;;;;5023388;28;20041;-72
2022/06/24 02:50:51;;;;;;;7.45;4.43;;;;;;;;;;5000046;28;20057;-71
2022/06/24 02:53:18;;;;;;;17.27;5.90;;;;;;;;;;5020837;28;20513;-71
2022/06/24 02:55:44;;;;;;;5.18;3.90;;;;;;;;;;4984147;28;20045;-72
2022/06/24 02:58:11;;;;;;;31.00;9.65;;;;;;;;;;5028429;28;20049;-71
2022/06/24 03:00:39;;;;;;;11.10;5.07;;;;;;;;;;5017959;28;20049;-71
2022/06/24 03:03:06;;;;;;;13.60;5.78;;;;;;;;;;5021584;28;20046;-71
2022/06/24 03:05:32;;;;;;;16.42;6.20;;;;;;;;;;5016271;28;20050;-71
2022/06/24 03:07:58;;;;;;;19.58;6.88;;;;;;;;;;5022704;28;20043;-71
2022/06/24 03:10:24;;;;;;;8.30;4.53;;;;;;;;;;4998705;28;20052;-71
2022/06/24 03:12:50;;;;;;;9.77;5.25;;;;;;;;;;4998461;28;20379;-72
2022/06/24 03:15:17;;;;;;;5.95;3.88;;;;;;;;;;5016472;28;20046;-73
2022/06/24 03:17:43;;;;;;;16.88;6.40;;;;;;;;;;5004347;28;20531;-72
2022/06/24 03:20:09;;;;;;;11.60;5.68;;;;;;;;;;5005245;28;20045;-72
2022/06/24 03:22:35;;;;;;;9.43;4.80;;;;;;;;;;5015985;28;20026;-72
2022/06/24 03:25:01;;;;;;;8.45;4.80;;;;;;;;;;4998458;28;20050;-72
2022/06/24 03:27:28;;;;;;;7.30;4.25;;;;;;;;;;5015819;28;20034;-72
2022/06/24 03:29:54;;;;;;;11.15;5.03;;;;;;;;;;5016196;28;20397;-73
2022/06/24 03:32:20;;;;;;;10.63;4.80;;;;;;;;;;5028056;28;20042;-72
2022/06/24 03:34:46;;;;;;;5.47;4.00;;;;;;;;;;5004506;28;20053;-73
2022/06/24 03:37:12;;;;;;;22.08;7.60;;;;;;;;;;5004584;28;20076;-72
2022/06/24 03:39:38;;;;;;;4.95;3.80;;;;;;;;;;5004251;28;20048;-73
2022/06/24 03:42:05;;;;;;;19.10;7.38;;;;;;;;;;4988395;28;20280;-73
2022/06/24 03:44:31;;;;;;;5.38;4.60;;;;;;;;;;5011242;28;20095;-73
2022/06/24 03:46:57;;;;;;;11.88;5.13;;;;;;;;;;4997629;28;20491;-73
2022/06/24 03:49:26;;;;;;;17.88;7.50;;;;;;;;;;5018829;28;20157;-72
2022/06/24 03:51:51;;;;;;;6.75;3.72;;;;;;;;;;5015850;28;20073;-72
2022/06/24 03:54:18;;;;;;;6.57;4.32;;;;;;;;;;5019647;28;20050;-72
2022/06/24 03:56:44;;;;;;;16.08;6.80;;;;;;;;;;5017579;28;20120;-71
2022/06/24 03:59:10;;;;;;;9.15;4.45;;;;;;;;;;5021233;28;20148;-72
2022/06/24 04:01:36;;;;;;;56.38;18.92;;;;;;;;;;5016144;28;20537;-71
2022/06/24 04:04:01;;;;;;;69.28;21.27;;;;;;;;;;5015720;28;20061;-71
2022/06/24 04:06:28;;;;;;;35.90;13.73;;;;;;;;;;5009814;28;20042;-71
2022/06/24 04:08:55;;;;;;;59.28;20.45;;;;;;;;;;5020057;28;20415;-72
2022/06/24 04:11:21;;;;;;;64.88;23.45;;;;;;;;;;5021348;28;20084;-72
2022/06/24 04:13:47;;;;;;;28.17;11.60;;;;;;;;;;5023207;28;20445;-72
2022/06/24 04:16:13;;;;;;;33.00;10.20;;;;;;;;;;5020599;28;20056;-71
2022/06/24 04:18:39;;;;;;;37.92;10.98;;;;;;;;;;5015744;28;20088;-71
2022/06/24 04:21:16;;;;;;;20.15;7.32;;;;;;;;;;5015269;28;20046;-71
2022/06/24 04:23:42;;;;;;;15.70;5.47;;;;;;;;;;5023553;28;20053;-71
2022/06/24 04:26:09;;;;;;;11.32;4.85;;;;;;;;;;5020249;28;20042;-72
2022/06/24 04:28:35;;;;;;;17.02;7.35;;;;;;;;;;5013725;28;20445;-71
2022/06/24 04:31:02;;;;;;;8.45;4.53;;;;;;;;;;5016566;28;20080;-72
2022/06/24 04:33:28;;;;;;;5.35;4.05;;;;;;;;;;5024690;28;20056;-72
2022/06/24 04:35:54;;;;;;;8.07;4.32;;;;;;;;;;5018556;28;20506;-72
2022/06/24 04:38:20;;;;;;;5.82;4.20;;;;;;;;;;5024538;28;20052;-71
2022/06/24 04:40:46;;;;;;;4.78;4.10;;;;;;;;;;5023988;28;20053;-72
2022/06/24 04:43:15;;;;;;;12.25;5.15;;;;;;;;;;5024122;28;20042;-72
2022/06/24 04:45:41;;;;;;;5.00;4.25;;;;;;;;;;5023878;28;20041;-72
2022/06/24 04:48:07;;;;;;;15.55;5.65;;;;;;;;;;5025904;28;20046;-72
2022/06/24 04:50:33;;;;;;;8.77;4.43;;;;;;;;;;5015909;28;20049;-72
2022/06/24 04:52:59;;;;;;;6.47;4.50;;;;;;;;;;4993322;28;20381;-72
2022/06/24 04:55:25;;;;;;;5.15;4.65;;;;;;;;;;5006056;28;20052;-72
2022/06/24 04:57:51;;;;;;;7.32;5.38;;;;;;;;;;5003687;28;20059;-72
2022/06/24 05:00:17;;;;;;;9.38;5.93;;;;;;;;;;4984787;28;20056;-71
2022/06/24 05:02:43;;;;;;;11.85;8.60;;;;;;;;;;4997617;28;20052;-71
2022/06/24 05:05:10;;;;;;;8.57;7.32;;;;;;;;;;5027989;28;20073;-72
2022/06/24 05:07:36;;;;;;;14.55;8.82;;;;;;;;;;5001017;28;20065;-72
2022/06/24 05:10:03;;;;;;;11.73;9.98;;;;;;;;;;4997655;28;20060;-72
2022/06/24 05:12:29;;;;;;;14.32;10.25;;;;;;;;;;5017583;28;20049;-72
2022/06/24 05:14:56;;;;;;;15.73;11.68;;;;;;;;;;5006930;28;20053;-72
2022/06/24 05:17:22;;;;;;;14.15;10.80;;;;;;;;;;4999651;28;20540;-72
2022/06/24 05:19:48;;;;;;;16.58;11.10;;;;;;;;;;5000018;28;20057;-72
2022/06/24 05:22:14;;;;;;;12.55;11.25;;;;;;;;;;4998895;28;20264;-73
2022/06/24 05:24:40;;;;;;;15.77;12.88;;;;;;;;;;5013079;28;20050;-72
2022/06/24 05:27:06;;;;;;;18.73;11.65;;;;;;;;;;5005109;28;20046;-72
2022/06/24 05:29:32;;;;;;;19.02;11.40;;;;;;;;;;5006791;28;20056;-72
2022/06/24 05:31:58;;;;;;;19.15;11.82;;;;;;;;;;5001203;28;20137;-72
2022/06/24 05:34:24;;;;;;;23.52;12.80;;;;;;;;;;5000953;28;20391;-74
2022/06/24 05:36:50;;;;;;;15.75;13.02;;;;;;;;;;5000430;28;20042;-74
2022/06/24 05:39:16;;;;;;;19.17;13.48;;;;;;;;;;5017868;28;20045;-72
2022/06/24 05:41:43;;;;;;;19.73;12.95;;;;;;;;;;5017265;28;20045;-73
2022/06/24 05:44:09;;;;;;;18.85;13.18;;;;;;;;;;4994308;28;20046;-73
2022/06/24 05:46:36;;;;;;;17.05;11.80;;;;;;;;;;5023979;28;20034;-73
2022/06/24 05:49:02;;;;;;;15.85;10.35;;;;;;;;;;5024152;28;20046;-73
2022/06/24 05:51:28;;;;;;;18.73;11.05;;;;;;;;;;5016688;28;20067;-72
2022/06/24 05:56:39;;;;;;;14.45;9.63;;;;;;;;;;5018096;28;20041;-73
2022/06/24 05:59:05;;;;;;;13.05;9.95;;;;;;;;;;4999938;28;20041;-72
2022/06/24 06:01:32;;;;;;;13.05;9.10;;;;;;;;;;5016829;28;20088;-72
2022/06/24 06:03:58;;;;;;;12.20;9.70;;;;;;;;;;5000352;28;20132;-73
2022/06/24 06:06:24;;;;;;;35.85;15.23;;;;;;;;;;4999587;28;20092;-72
2022/06/24 06:08:50;;;;;;;14.13;9.82;;;;;;;;;;4999895;28;20054;-73
2022/06/24 06:11:18;;;;;;;11.90;9.30;;;;;;;;;;5016882;28;20038;-73
2022/06/24 06:13:44;;;;;;;11.20;7.95;;;;;;;;;;5006263;28;20046;-73
2022/06/24 06:16:10;;;;;;;12.40;8.75;;;;;;;;;;5010279;28;20096;-73
2022/06/24 06:18:36;;;;;;;11.52;8.63;;;;;;;;;;4999152;28;20185;-73
2022/06/24 06:21:03;;;;;;;12.02;8.63;;;;;;;;;;4999974;28;20253;-73
2022/06/24 06:23:29;;;;;;;32.42;11.20;;;;;;;;;;5022111;28;20509;-73
2022/06/24 06:25:56;;;;;;;22.90;8.75;;;;;;;;;;4985000;28;20100;-73
2022/06/24 06:28:22;;;;;;;10.43;6.20;;;;;;;;;;5004680;28;20447;-73
2022/06/24 06:30:48;;;;;;;22.77;8.82;;;;;;;;;;5007395;28;20038;-73
2022/06/24 06:33:14;;;;;;;12.98;7.10;;;;;;;;;;5023955;28;20046;-73
2022/06/24 06:35:40;;;;;;;10.27;7.20;;;;;;;;;;4999409;28;20375;-73
2022/06/24 06:38:06;;;;;;;9.70;8.32;;;;;;;;;;4992889;28;20077;-73
2022/06/24 06:40:35;;;;;;;12.88;9.25;;;;;;;;;;4983355;28;20532;-73
2022/06/24 06:43:02;;;;;;;11.25;8.63;;;;;;;;;;4996166;28;20064;-73
2022/06/24 06:45:28;;;;;;;11.88;9.15;;;;;;;;;;5004705;28;20045;-73
2022/06/24 06:47:54;;;;;;;12.82;9.18;;;;;;;;;;5019833;28;20092;-73
2022/06/24 06:50:20;;;;;;;11.10;8.32;;;;;;;;;;4998964;28;20054;-73
2022/06/24 06:52:46;;;;;;;9.27;7.65;;;;;;;;;;5013454;28;20068;-72
2022/06/24 06:55:12;;;;;;;12.70;8.00;;;;;;;;;;5023488;28;20061;-73
2022/06/24 06:57:38;;;;;;;14.10;8.48;;;;;;;;;;5014926;28;20041;-73
2022/06/24 07:00:05;;;;;;;14.75;9.20;;;;;;;;;;5016001;28;20049;-72
2022/06/24 07:02:31;;;;;;;12.80;9.45;;;;;;;;;;5017957;28;20120;-73
2022/06/24 07:04:57;;;;;;;12.32;10.00;;;;;;;;;;5028537;28;20140;-72
2022/06/24 07:07:23;;;;;;;12.38;8.18;;;;;;;;;;5017503;28;20045;-72
2022/06/24 07:09:51;;;;;;;9.32;7.68;;;;;;;;;;5017187;28;20041;-72
2022/06/24 07:12:17;;;;;;;12.03;9.20;;;;;;;;;;5017160;28;20168;-73
2022/06/24 07:14:43;;;;;;;14.95;9.40;;;;;;;;;;5015408;28;20300;-72
2022/06/24 07:17:10;;;;;;;20.27;9.85;;;;;;;;;;5021608;28;20084;-72
2022/06/24 07:19:36;;;;;;;11.60;8.93;;;;;;;;;;5009534;28;20052;-72
2022/06/24 07:22:03;;;;;;;12.98;8.35;;;;;;;;;;5015108;28;20048;-72
2022/06/24 07:24:29;;;;;;;9.57;8.57;;;;;;;;;;5015100;28;20050;-72
2022/06/24 07:26:55;;;;;;;10.27;8.95;;;;;;;;;;5009770;28;20042;-72
2022/06/24 07:29:20;;;;;;;15.10;8.80;;;;;;;;;;5015813;28;20069;-72
2022/06/24 07:31:47;;;;;;;15.38;8.77;;;;;;;;;;5022612;28;20533;-72
2022/06/24 07:34:16;;;;;;;21.48;9.55;;;;;;;;;;5014963;28;20050;-72
2022/06/24 07:36:42;;;;;;;12.05;9.85;;;;;;;;;;5014639;28;20129;-72
2022/06/24 07:39:09;;;;;;;13.55;10.82;;;;;;;;;;5020928;28;20041;-72
2022/06/24 07:41:35;;;;;;;11.80;9.98;;;;;;;;;;5004647;28;20109;-72
2022/06/24 07:44:01;;;;;;;13.35;10.05;;;;;;;;;;5020608;28;20041;-72
2022/06/24 07:46:27;;;;;;;11.82;10.05;;;;;;;;;;5020667;28;20049;-71
2022/06/24 07:48:56;;;;;;;10.80;9.70;;;;;;;;;;5011197;28;20044;-72
2022/06/24 07:51:22;;;;;;;12.18;10.77;;;;;;;;;;5014294;28;20140;-72
2022/06/24 07:53:49;;;;;;;22.98;12.23;;;;;;;;;;5010206;28;20061;-72
2022/06/24 07:59:00;;;;;;;14.43;10.95;;;;;;;;;;5022534;28;20050;-72
2022/06/24 08:01:26;;;;;;;14.88;10.50;;;;;;;;;;5014364;28;20494;-72
2022/06/24 08:03:52;;;;;;;13.45;10.55;;;;;;;;;;5016963;28;20053;-72
2022/06/24 08:06:18;;;;;;;18.02;10.88;;;;;;;;;;5019912;28;20033;-72
2022/06/24 08:08:44;;;;;;;38.85;13.27;;;;;;;;;;5031008;28;20059;-72
2022/06/24 08:11:10;;;;;;;19.98;11.38;;;;;;;;;;5016756;28;20077;-72
2022/06/24 08:13:36;;;;;;;11.73;10.50;;;;;;;;;;5021384;28;20120;-72
2022/06/24 08:16:02;;;;;;;12.30;9.93;;;;;;;;;;5018467;28;20064;-72
2022/06/24 08:18:28;;;;;;;11.27;8.68;;;;;;;;;;5019608;28;20038;-71
2022/06/24 08:20:54;;;;;;;14.43;10.68;;;;;;;;;;5008299;28;20045;-72
2022/06/24 08:23:20;;;;;;;12.07;10.18;;;;;;;;;;5029465;28;20045;-71
2022/06/24 08:25:46;;;;;;;14.98;11.75;;;;;;;;;;5014567;28;20050;-71
2022/06/24 08:28:12;;;;;;;14.88;12.02;;;;;;;;;;5019272;28;20102;-71
2022/06/24 08:30:38;;;;;;;16.58;12.02;;;;;;;;;;5020058;28;20085;-71
2022/06/24 08:33:04;;;;;;;35.15;15.88;;;;;;;;;;5006606;28;20049;-71
2022/06/24 08:35:31;;;;;;;14.63;10.98;;;;;;;;;;5029461;28;20052;-71
2022/06/24 08:37:58;;;;;;;15.13;11.18;;;;;;;;;;5019344;28;20049;-72
2022/06/24 08:40:24;;;;;;;17.20;14.13;;;;;;;;;;5012882;28;20084;-71
2022/06/24 08:42:55;;;;;;;14.77;13.23;;;;;;;;;;5019831;28;20052;-71
2022/06/24 08:45:21;;;;;;;18.20;12.55;;;;;;;;;;5022923;28;20483;-71
2022/06/24 08:47:48;;;;;;;39.47;16.95;;;;;;;;;;5012839;28;20126;-71
2022/06/24 08:50:15;;;;;;;16.48;13.13;;;;;;;;;;5018516;28;20045;-71
2022/06/24 08:52:46;;;;;;;32.13;15.02;;;;;;;;;;5017937;28;20132;-70
2022/06/24 08:55:15;;;;;;;21.15;15.60;;;;;;;;;;4990768;28;20541;-71
2022/06/24 08:57:41;;;;;;;22.73;15.80;;;;;;;;;;4999363;28;20046;-71
2022/06/24 09:00:07;;;;;;;17.13;14.98;;;;;;;;;;5001042;28;20060;-71
2022/06/24 09:02:33;;;;;;;25.90;14.77;;;;;;;;;;5019384;28;20058;-71
2022/06/24 09:05:00;;;;;;;16.98;15.30;;;;;;;;;;5018116;28;20157;-71
2022/06/24 09:07:26;;;;;;;18.30;16.08;;;;;;;;;;5007094;28;20045;-71
2022/06/24 09:10:04;;;;;;;21.08;14.10;;;;;;;;;;5000371;28;20080;-71
2022/06/24 09:12:37;;;;;;;15.70;13.55;;;;;;;;;;5020263;28;20056;-70
2022/06/24 09:15:04;;;;;;;16.83;14.13;;;;;;;;;;5004549;28;20092;-71
2022/06/24 09:17:31;;;;;;;23.60;15.18;;;;;;;;;;5006771;28;20447;-71
2022/06/24 09:20:10;;;;;;;20.02;14.65;;;;;;;;;;5018277;28;20054;-71
2022/06/24 09:22:37;;;;;;;17.90;14.10;;;;;;;;;;5000729;28;20164;-71
2022/06/24 09:25:03;;;;;;;15.93;14.27;;;;;;;;;;5000532;28;20177;-71
2022/06/24 09:27:30;;;;;;;16.92;15.13;;;;;;;;;;5003676;28;20041;-70
2022/06/24 09:29:56;;;;;;;15.32;13.70;;;;;;;;;;5000363;28;20389;-71
2022/06/24 09:32:22;;;;;;;17.05;15.25;;;;;;;;;;4998417;28;20111;-71
2022/06/24 09:34:58;;;;;;;14.77;13.20;;;;;;;;;;5000448;28;20434;-70
2022/06/24 09:37:34;;;;;;;16.55;14.80;;;;;;;;;;4997142;28;20073;-71
2022/06/24 09:40:14;;;;;;;15.25;13.68;;;;;;;;;;5019375;28;20056;-71
2022/06/24 09:42:40;;;;;;;16.92;14.57;;;;;;;;;;5005994;28;20128;-71
2022/06/24 09:45:06;;;;;;;18.20;16.15;;;;;;;;;;5013159;28;20581;-70
2022/06/24 09:47:37;;;;;;;18.63;15.35;;;;;;;;;;5001310;28;20568;-71
2022/06/24 09:50:03;;;;;;;20.33;16.40;;;;;;;;;;5006401;28;20049;-71
2022/06/24 09:52:31;;;;;;;18.73;16.83;;;;;;;;;;5018876;28;20096;-71
2022/06/24 09:54:58;;;;;;;16.07;14.37;;;;;;;;;;5010456;28;20085;-71
2022/06/24 09:57:24;;;;;;;16.80;14.60;;;;;;;;;;5023547;28;20336;-71
2022/06/24 10:02:36;;;;;;;5.22;4.72;;;;;;;;;;5022440;28;20104;-71
2022/06/24 10:05:02;;;;;;;4.70;4.22;;;;;;;;;;5023334;28;20137;-71
2022/06/24 10:07:30;;;;;;;5.50;4.50;;;;;;;;;;5015981;28;20133;-70
2022/06/24 10:09:57;;;;;;;5.22;2.95;;;;;;;;;;5009951;28;20479;-71
2022/06/24 10:12:23;;;;;;;4.30;2.63;;;;;;;;;;5022457;28;20051;-71
2022/06/24 10:14:50;;;;;;;3.88;2.58;;;;;;;;;;5010612;28;20046;-71
2022/06/24 10:17:16;;;;;;;2.95;2.55;;;;;;;;;;5017593;28;20051;-71
2022/06/24 10:19:43;;;;;;;3.85;2.92;;;;;;;;;;5009313;28;20282;-71
2022/06/24 10:22:09;;;;;;;3.72;2.90;;;;;;;;;;5017119;28;20038;-70
2022/06/24 10:24:40;;;;;;;3.67;2.80;;;;;;;;;;5016312;28;20319;-70
2022/06/24 10:27:06;;;;;;;2.95;2.65;;;;;;;;;;5025744;28;20148;-70
2022/06/24 10:29:33;;;;;;;4.80;3.00;;;;;;;;;;5012325;28;20518;-70
2022/06/24 10:32:00;;;;;;;3.60;2.72;;;;;;;;;;5023690;28;20076;-71
2022/06/24 10:34:30;;;;;;;5.70;2.95;;;;;;;;;;5022150;28;20076;-71
2022/06/24 10:37:09;;;;;;;4.68;3.10;;;;;;;;;;5023676;28;20546;-71
2022/06/24 10:39:46;;;;;;;4.13;2.58;;;;;;;;;;5008773;28;20893;-71
2022/06/24 10:42:14;;;;;;;4.88;3.15;;;;;;;;;;5023894;28;20041;-71
2022/06/24 10:44:51;;;;;;;4.07;3.38;;;;;;;;;;5025352;28;20045;-71
2022/06/24 10:47:19;;;;;;;4.32;3.92;;;;;;;;;;5016260;28;20085;-71
2022/06/24 10:50:01;;;;;;;6.23;4.20;;;;;;;;;;5016055;28;20128;-71
2022/06/24 10:52:56;;;;;;;12.10;5.70;;;;;;;;;;5017232;28;20049;-71
2022/06/24 10:55:28;;;;;;;5.63;4.25;;;;;;;;;;5008611;28;20053;-71
2022/06/24 10:58:08;;;;;;;5.00;4.45;;;;;;;;;;4999306;28;20085;-71
2022/06/24 11:00:37;;;;;;;6.10;4.53;;;;;;;;;;5023159;28;20042;-71
2022/06/24 11:03:03;;;;;;;6.80;5.10;;;;;;;;;;5020844;28;20045;-71
2022/06/24 11:05:36;;;;;;;7.05;5.18;;;;;;;;;;5015385;28;20041;-72
2022/06/24 11:08:03;;;;;;;7.68;5.63;;;;;;;;;;5025158;28;20092;-71
2022/06/24 11:10:30;;;;;;;5.53;5.03;;;;;;;;;;4998900;28;20132;-71
2022/06/24 11:13:00;;;;;;;5.75;4.70;;;;;;;;;;4985222;28;20046;-71
2022/06/24 11:15:33;;;;;;;6.80;4.70;;;;;;;;;;5020685;28;20046;-71
2022/06/24 11:18:05;;;;;;;5.78;4.90;;;;;;;;;;5017346;28;20049;-71
2022/06/24 11:20:31;;;;;;;4.70;4.15;;;;;;;;;;4988076;28;20046;-71
2022/06/24 11:22:57;;;;;;;8.93;4.57;;;;;;;;;;5023024;28;20069;-71
2022/06/24 11:25:23;;;;;;;5.18;4.35;;;;;;;;;;4990049;28;20151;-71
2022/06/24 11:27:49;;;;;;;5.40;4.45;;;;;;;;;;5027774;28;20132;-71
2022/06/24 11:30:15;;;;;;;8.43;4.80;;;;;;;;;;5004725;28;20089;-71
2022/06/24 11:32:51;;;;;;;5.57;4.20;;;;;;;;;;5015357;28;20486;-71
2022/06/24 11:35:18;;;;;;;10.43;5.50;;;;;;;;;;5015081;28;20057;-72
2022/06/24 11:37:44;;;;;;;10.65;5.05;;;;;;;;;;5004571;28;20413;-72
2022/06/24 11:40:10;;;;;;;3.88;3.42;;;;;;;;;;5028710;28;20088;-72
2022/06/24 11:42:36;;;;;;;3.75;3.38;;;;;;;;;;5017354;28;20502;-72
2022/06/24 11:45:02;;;;;;;4.57;3.70;;;;;;;;;;4997665;28;20045;-72
2022/06/24 11:47:33;;;;;;;6.93;3.95;;;;;;;;;;5004007;28;20072;-72
2022/06/24 11:49:59;;;;;;;5.32;4.05;;;;;;;;;;4997337;28;20058;-72
2022/06/24 11:52:25;;;;;;;4.82;3.92;;;;;;;;;;5003786;28;20056;-72
2022/06/24 11:54:51;;;;;;;6.40;3.85;;;;;;;;;;5011774;28;20132;-71
2022/06/24 11:57:17;;;;;;;4.55;4.10;;;;;;;;;;5035622;28;20045;-72
2022/06/24 11:59:43;;;;;;;6.47;4.78;;;;;;;;;;5015331;28;20049;-72
2022/06/24 12:02:14;;;;;;;6.07;4.78;;;;;;;;;;5018170;28;20398;-71
2022/06/24 12:04:40;;;;;;;5.93;5.20;;;;;;;;;;5016011;28;20041;-71
2022/06/24 12:07:07;;;;;;;6.05;4.63;;;;;;;;;;5019092;28;20038;-72
2022/06/24 12:09:34;;;;;;;6.00;4.60;;;;;;;;;;5017240;28;20037;-69
2022/06/24 12:12:09;;;;;;;7.13;6.20;;;;;;;;;;5018834;28;20448;-68
2022/06/24 12:14:35;;;;;;;6.20;5.22;;;;;;;;;;5009662;28;20061;-69
2022/06/24 12:17:08;;;;;;;6.07;5.47;;;;;;;;;;5018621;28;20367;-70
2022/06/24 12:19:37;;;;;;;6.53;5.07;;;;;;;;;;5012885;28;20038;-69
2022/06/24 12:22:07;;;;;;;8.43;5.70;;;;;;;;;;5018788;28;20049;-69
2022/06/24 12:24:34;;;;;;;7.85;5.85;;;;;;;;;;5002619;28;20888;-71
2022/06/24 12:27:04;;;;;;;6.55;5.95;;;;;;;;;;5018260;28;20037;-71
2022/06/24 12:29:37;;;;;;;8.20;6.63;;;;;;;;;;5022795;28;20053;-71
2022/06/24 12:32:04;;;;;;;7.15;6.30;;;;;;;;;;5014466;28;20053;-72
2022/06/24 12:34:34;;;;;;;8.13;6.25;;;;;;;;;;5008286;28;20088;-69
2022/06/24 12:37:03;;;;;;;9.20;6.45;;;;;;;;;;5021701;28;20052;-69
2022/06/24 12:39:31;;;;;;;7.90;6.20;;;;;;;;;;5021093;28;20046;-70
2022/06/24 12:41:58;;;;;;;7.57;6.70;;;;;;;;;;5014702;28;20116;-70
2022/06/24 12:44:24;;;;;;;11.43;5.82;;;;;;;;;;5014429;28;20085;-70
2022/06/24 12:52:43;;;;;;;8.20;6.78;;;;;;;;;;4953984;28;20051;-71
2022/06/24 12:55:11;;;;;;;7.45;6.55;;;;;;;;;;4955121;28;20196;-71
2022/06/24 12:57:37;;;;;;;6.43;5.82;;;;;;;;;;4970371;28;20043;-71
2022/06/24 13:00:08;;;;;;;8.45;6.97;;;;;;;;;;4953191;28;20054;-71
2022/06/24 13:02:34;;;;;;;7.10;6.15;;;;;;;;;;4970092;28;20039;-71
2022/06/24 13:05:00;;;;;;;7.30;6.70;;;;;;;;;;4970708;28;20050;-72
2022/06/24 13:07:26;;;;;;;7.85;7.15;;;;;;;;;;4954057;28;20137;-70
2022/06/24 13:09:52;;;;;;;8.18;6.55;;;;;;;;;;4954620;28;20133;-71
2022/06/24 13:12:18;;;;;;;7.05;6.38;;;;;;;;;;4954585;28;20454;-71
2022/06/24 13:14:44;;;;;;;7.30;6.43;;;;;;;;;;4953781;28;20070;-71
2022/06/24 13:17:10;;;;;;;8.90;6.72;;;;;;;;;;4953796;28;20045;-71
2022/06/24 13:19:36;;;;;;;7.82;6.80;;;;;;;;;;4956234;28;20054;-71
2022/06/24 13:22:03;;;;;;;7.22;6.38;;;;;;;;;;5024011;28;20053;-70
2022/06/24 13:24:29;;;;;;;8.75;6.63;;;;;;;;;;5026708;28;20556;-71
2022/06/24 13:26:55;;;;;;;11.50;6.93;;;;;;;;;;5014172;28;20108;-71
2022/06/24 13:29:21;;;;;;;7.00;6.40;;;;;;;;;;5012414;28;20133;-70
2022/06/24 13:31:47;;;;;;;7.50;6.80;;;;;;;;;;5006857;28;20473;-70
2022/06/24 13:34:13;;;;;;;8.40;6.22;;;;;;;;;;5021686;28;20051;-71
2022/06/24 13:36:39;;;;;;;7.95;6.95;;;;;;;;;;5027046;28;20113;-72
2022/06/24 13:39:05;;;;;;;8.20;6.53;;;;;;;;;;5021660;28;20042;-71
2022/06/24 13:41:32;;;;;;;8.30;7.53;;;;;;;;;;5019908;28;20045;-71
2022/06/24 13:43:58;;;;;;;8.63;7.82;;;;;;;;;;5015189;28;20104;-70
2022/06/24 13:46:24;;;;;;;8.63;7.47;;;;;;;;;;5015976;28;20077;-71
2022/06/24 13:48:51;;;;;;;8.20;7.40;;;;;;;;;;5022870;28;20073;-71
2022/06/24 13:51:17;;;;;;;7.97;7.28;;;;;;;;;;5000205;28;20112;-71
2022/06/24 13:53:43;;;;;;;35.53;14.07;;;;;;;;;;5003199;28;20137;-71
2022/06/24 13:56:09;;;;;;;10.45;7.40;;;;;;;;;;5017043;28;20129;-71
2022/06/24 13:58:36;;;;;;;17.20;8.50;;;;;;;;;;5023000;28;20124;-71
2022/06/24 14:01:02;;;;;;;7.25;6.35;;;;;;;;;;5016967;28;20054;-71
2022/06/24 14:03:28;;;;;;;7.53;6.70;;;;;;;;;;5023360;28;20502;-71
2022/06/24 14:05:56;;;;;;;7.55;6.55;;;;;;;;;;5017421;28;20049;-71
2022/06/24 14:08:22;;;;;;;15.77;8.93;;;;;;;;;;5010737;28;20056;-71
2022/06/24 14:10:48;;;;;;;10.15;6.78;;;;;;;;;;5022412;28;20049;-71
2022/06/24 14:13:14;;;;;;;30.50;13.30;;;;;;;;;;5016174;28;20053;-71
2022/06/24 14:15:40;;;;;;;9.98;6.72;;;;;;;;;;5013117;28;20095;-71
2022/06/24 14:18:07;;;;;;;33.15;14.02;;;;;;;;;;5019657;28;20121;-71
2022/06/24 14:20:33;;;;;;;7.18;6.13;;;;;;;;;;5019888;28;20483;-72
2022/06/24 14:25:43;;;;;;;6.90;6.20;;;;;;;;;;5023840;28;20054;-71
2022/06/24 14:28:09;;;;;;;7.18;6.38;;;;;;;;;;5022649;28;20052;-70
2022/06/24 14:30:37;;;;;;;7.45;6.75;;;;;;;;;;5009250;28;20041;-71
2022/06/24 14:33:03;;;;;;;7.07;6.20;;;;;;;;;;5017353;28;20042;-71
2022/06/24 14:35:29;;;;;;;14.48;7.65;;;;;;;;;;5020483;28;20038;-71
2022/06/24 14:40:40;;;;;;;8.93;6.93;;;;;;;;;;5015263;28;20056;-71
2022/06/24 14:43:06;;;;;;;7.97;7.25;;;;;;;;;;5015654;28;20042;-71
2022/06/24 14:45:32;;;;;;;32.00;14.02;;;;;;;;;;5016916;28;20072;-71
2022/06/24 14:47:59;;;;;;;8.38;7.43;;;;;;;;;;5023528;28;20132;-71
2022/06/24 14:50:25;;;;;;;8.05;7.25;;;;;;;;;;5016635;28;20045;-72
2022/06/24 14:52:51;;;;;;;8.30;7.60;;;;;;;;;;5021587;28;20057;-71
2022/06/24 14:55:17;;;;;;;10.68;8.93;;;;;;;;;;5016504;28;20136;-71